createdAt,value
2022-09-20T00:01:07.983Z,70.80
2022-09-20T00:03:36.411Z,70.80
2022-09-20T00:06:03.569Z,71.10
2022-09-20T00:08:30.312Z,71.30
2022-09-20T00:11:21.892Z,71.10
2022-09-20T00:13:50.466Z,71.00
2022-09-20T00:16:19.773Z,71.00
2022-09-20T00:18:53.545Z,70.90
2022-09-20T00:21:21.859Z,71.00
2022-09-20T00:23:48.701Z,71.10
2022-09-20T00:26:15.419Z,72.00
2022-09-20T00:28:42.384Z,71.20
2022-09-20T00:31:09.192Z,71.20
2022-09-20T00:33:54.281Z,71.30
2022-09-20T00:36:21.047Z,71.40
2022-09-20T00:38:47.775Z,71.40
2022-09-20T00:41:14.666Z,71.40
2022-09-20T00:43:44.977Z,71.40
2022-09-20T00:46:33.427Z,71.40
2022-09-20T00:49:04.890Z,71.40
2022-09-20T00:51:33.833Z,71.50
2022-09-20T00:54:01.641Z,71.60
2022-09-20T00:56:31.280Z,71.50
2022-09-20T00:59:00.961Z,71.60
2022-09-20T01:01:27.832Z,71.50
2022-09-20T01:03:54.604Z,71.70
2022-09-20T01:06:21.327Z,71.60
2022-09-20T01:08:49.613Z,71.70
2022-09-20T01:11:16.567Z,71.80
2022-09-20T01:13:43.443Z,71.80
2022-09-20T01:16:10.219Z,72.00
2022-09-20T01:18:36.992Z,72.10
2022-09-20T01:21:03.881Z,72.10
2022-09-20T01:23:46.163Z,72.20
2022-09-20T01:26:26.091Z,72.20
2022-09-20T01:29:09.401Z,72.30
2022-09-20T01:31:37.562Z,72.30
2022-09-20T01:34:08.634Z,72.50
2022-09-20T01:36:39.700Z,72.40
2022-09-20T01:39:30.063Z,72.60
2022-09-20T01:42:10.242Z,72.60
2022-09-20T01:44:46.261Z,72.60
2022-09-20T01:47:25.228Z,72.60
2022-09-20T01:49:58.215Z,72.60
2022-09-20T01:52:36.609Z,72.80
2022-09-20T01:55:34.222Z,72.90
2022-09-20T01:58:09.741Z,72.60
2022-09-20T02:00:51.361Z,72.90
2022-09-20T02:03:31.318Z,72.80
2022-09-20T02:06:16.011Z,72.70
2022-09-20T02:09:13.846Z,73.00
2022-09-20T02:11:43.258Z,73.10
2022-09-20T02:14:12.748Z,73.10
2022-09-20T02:16:56.696Z,73.20
2022-09-20T02:19:46.885Z,73.00
2022-09-20T02:22:40.098Z,73.00
2022-09-20T02:25:38.263Z,73.20
2022-09-20T02:28:19.675Z,73.10
2022-09-20T02:31:10.344Z,73.10
2022-09-20T02:33:52.025Z,73.20
2022-09-20T02:36:34.259Z,73.30
2022-09-20T02:39:17.565Z,73.20
2022-09-20T02:42:04.748Z,74.30
2022-09-20T02:44:37.850Z,73.50
2022-09-20T02:47:13.452Z,73.60
2022-09-20T02:49:52.315Z,73.70
2022-09-20T02:52:25.100Z,73.80
2022-09-20T02:54:54.115Z,73.70
2022-09-20T02:57:47.386Z,73.80
2022-09-20T03:00:37.501Z,73.70
2022-09-20T03:03:16.104Z,73.90
2022-09-20T03:05:57.786Z,74.00
2022-09-20T03:08:47.001Z,74.20
2022-09-20T03:11:38.483Z,74.10
2022-09-20T03:14:24.241Z,74.10
2022-09-20T03:17:14.836Z,74.20
2022-09-20T03:19:53.415Z,74.30
2022-09-20T03:22:31.896Z,74.30
2022-09-20T03:25:04.354Z,74.50
2022-09-20T03:27:55.528Z,74.50
2022-09-20T03:30:41.504Z,74.50
2022-09-20T03:33:22.554Z,74.60
2022-09-20T03:36:13.504Z,74.70
2022-09-20T03:38:40.152Z,74.80
2022-09-20T03:41:12.749Z,74.90
2022-09-20T03:43:57.977Z,74.90
2022-09-20T03:46:28.984Z,74.90
2022-09-20T03:49:04.866Z,74.90
2022-09-20T03:51:53.376Z,74.80
2022-09-20T03:54:46.290Z,74.90
2022-09-20T03:57:34.583Z,75.10
2022-09-20T04:00:30.775Z,75.00
2022-09-20T04:03:45.366Z,74.90
2022-09-20T04:06:33.150Z,74.80
2022-09-20T04:09:31.528Z,74.80
2022-09-20T04:12:07.571Z,74.70
2022-09-20T04:15:03.615Z,74.70
2022-09-20T04:17:41.478Z,74.80
2022-09-20T04:20:32.054Z,74.80
2022-09-20T04:23:01.365Z,74.80
2022-09-20T04:25:43.646Z,74.90
2022-09-20T04:28:19.785Z,74.90
2022-09-20T04:30:46.583Z,75.00
2022-09-20T04:33:23.272Z,74.90
2022-09-20T04:36:29.392Z,74.90
2022-09-20T04:39:02.103Z,74.80
2022-09-20T04:41:34.708Z,74.70
2022-09-20T04:44:33.771Z,75.00
2022-09-20T04:47:27.785Z,74.90
2022-09-20T04:50:12.352Z,75.00
2022-09-20T04:52:54.075Z,74.90
2022-09-20T04:55:41.082Z,74.80
2022-09-20T04:58:26.392Z,75.00
2022-09-20T05:01:19.745Z,75.00
2022-09-20T05:04:20.353Z,75.10
2022-09-20T05:07:16.768Z,75.00
2022-09-20T05:09:58.541Z,75.10
2022-09-20T05:12:54.600Z,75.10
2022-09-20T05:15:34.208Z,75.20
2022-09-20T05:18:34.729Z,75.20
2022-09-20T05:21:38.575Z,75.30
2022-09-20T05:24:19.763Z,75.30
2022-09-20T05:26:46.926Z,75.30
2022-09-20T05:29:35.115Z,75.40
2022-09-20T05:32:27.069Z,75.40
2022-09-20T05:35:06.817Z,75.40
2022-09-20T05:37:40.491Z,76.40
2022-09-20T05:40:26.128Z,75.80
2022-09-20T05:42:56.975Z,75.80
2022-09-20T05:45:37.626Z,75.90
2022-09-20T05:48:30.348Z,75.80
2022-09-20T05:51:09.943Z,75.80
2022-09-20T05:54:07.631Z,75.90
2022-09-20T05:56:36.089Z,75.90
2022-09-20T05:59:23.102Z,76.00
2022-09-20T06:02:17.084Z,76.10
2022-09-20T06:05:09.243Z,76.00
2022-09-20T06:07:54.583Z,76.10
2022-09-20T06:10:59.604Z,76.10
2022-09-20T06:13:33.589Z,76.30
2022-09-20T06:16:02.112Z,76.50
2022-09-20T06:18:50.291Z,76.50
2022-09-20T06:21:42.125Z,76.50
2022-09-20T06:24:22.048Z,76.50
2022-09-20T06:26:49.550Z,76.50
2022-09-20T06:29:16.235Z,76.60
2022-09-20T06:31:42.953Z,76.50
2022-09-20T06:34:10.875Z,76.50
2022-09-20T06:36:56.833Z,76.40
2022-09-20T06:40:00.706Z,76.60
2022-09-20T06:42:27.595Z,76.60
2022-09-20T06:44:54.742Z,76.60
2022-09-20T06:47:23.091Z,76.60
2022-09-20T06:49:50.239Z,76.70
2022-09-20T06:52:21.462Z,77.40
2022-09-20T06:54:54.227Z,76.60
2022-09-20T06:57:33.580Z,76.70
2022-09-20T07:00:00.339Z,76.50
2022-09-20T07:02:27.284Z,76.50
2022-09-20T07:04:55.361Z,76.40
2022-09-20T07:07:22.157Z,75.30
2022-09-20T07:09:48.849Z,75.30
2022-09-20T07:12:15.537Z,75.10
2022-09-20T07:14:43.038Z,75.10
2022-09-20T07:17:09.856Z,75.10
2022-09-20T07:19:36.771Z,75.30
2022-09-20T07:22:03.527Z,76.10
2022-09-20T07:24:32.284Z,75.20
2022-09-20T07:27:02.988Z,76.10
2022-09-20T07:29:29.857Z,75.30
2022-09-20T07:31:56.849Z,75.40
2022-09-20T07:34:24.029Z,75.40
2022-09-20T07:36:51.337Z,75.30
2022-09-20T07:39:18.127Z,75.40
2022-09-20T07:41:48.382Z,75.60
2022-09-20T07:44:22.037Z,75.60
2022-09-20T07:46:49.638Z,75.50
2022-09-20T07:49:16.451Z,75.60
2022-09-20T07:51:43.222Z,75.60
2022-09-20T07:54:09.966Z,75.50
2022-09-20T07:56:36.731Z,75.80
2022-09-20T07:59:03.630Z,75.90
2022-09-20T08:01:30.399Z,75.70
2022-09-20T08:03:57.552Z,76.00
2022-09-20T08:06:24.433Z,75.90
2022-09-20T08:08:51.747Z,75.70
2022-09-20T08:11:27.946Z,75.90
2022-09-20T08:14:10.524Z,75.70
2022-09-20T08:16:39.075Z,75.40
2022-09-20T08:19:05.813Z,75.60
2022-09-20T08:21:33.821Z,75.70
2022-09-20T08:24:00.856Z,75.70
2022-09-20T08:26:28.555Z,75.70
2022-09-20T08:28:57.043Z,75.80
2022-09-20T08:31:28.439Z,75.80
2022-09-20T08:33:55.514Z,75.90
2022-09-20T08:36:25.460Z,75.80
2022-09-20T08:41:55.650Z,76.70
2022-09-20T08:44:29.682Z,75.70
2022-09-20T08:47:18.886Z,75.90
2022-09-20T08:49:46.724Z,75.80
2022-09-20T08:52:22.296Z,75.90
2022-09-20T08:54:48.998Z,75.80
2022-09-20T08:57:17.290Z,75.80
2022-09-20T08:59:44.384Z,75.90
2022-09-20T09:02:16.491Z,76.10
2022-09-20T09:04:44.714Z,76.10
2022-09-20T09:07:15.379Z,76.20
2022-09-20T09:09:46.638Z,76.30
2022-09-20T09:12:26.270Z,76.00
2022-09-20T09:14:57.377Z,75.90
2022-09-20T09:17:28.344Z,76.20
2022-09-20T09:19:56.453Z,76.00
2022-09-20T09:22:39.669Z,75.80
2022-09-20T09:25:22.346Z,75.50
2022-09-20T09:28:00.309Z,75.40
2022-09-20T09:30:34.171Z,74.70
2022-09-20T09:33:19.744Z,74.90
2022-09-20T09:36:09.101Z,74.60
2022-09-20T09:38:37.900Z,74.80
2022-09-20T09:41:27.022Z,74.50
2022-09-20T09:44:00.447Z,74.60
2022-09-20T09:46:30.456Z,74.70
2022-09-20T09:49:10.667Z,74.30
2022-09-20T09:51:39.030Z,75.30
2022-09-20T09:54:05.812Z,74.50
2022-09-20T09:56:35.805Z,74.30
2022-09-20T09:59:12.695Z,74.00
2022-09-20T10:01:58.214Z,73.50
2022-09-20T10:04:51.903Z,73.60
2022-09-20T10:07:28.286Z,73.30
2022-09-20T10:10:19.769Z,72.80
2022-09-20T10:13:03.346Z,72.80
2022-09-20T10:15:48.168Z,72.50
2022-09-20T10:18:33.779Z,72.80
2022-09-20T10:21:12.758Z,71.80
2022-09-20T10:24:04.967Z,71.70
2022-09-20T10:26:50.634Z,71.10
2022-09-20T10:29:36.380Z,70.70
2022-09-20T10:32:21.888Z,69.10
2022-09-20T10:35:04.979Z,68.90
2022-09-20T10:38:02.477Z,67.10
2022-09-20T10:40:52.128Z,68.60
2022-09-20T10:44:05.108Z,67.60
2022-09-20T10:46:53.679Z,68.00
2022-09-20T10:49:35.953Z,67.50
2022-09-20T10:52:21.212Z,67.70
2022-09-20T10:55:11.500Z,67.70
2022-09-20T10:58:03.431Z,66.20
2022-09-20T11:00:48.238Z,65.40
2022-09-20T11:03:42.598Z,67.10
2022-09-20T11:06:48.350Z,67.50
2022-09-20T11:09:20.828Z,68.10
2022-09-20T11:11:55.956Z,68.40
2022-09-20T11:14:31.544Z,67.80
2022-09-20T11:17:17.768Z,66.20
2022-09-20T11:20:07.657Z,66.10
2022-09-20T11:22:48.248Z,65.90
2022-09-20T11:25:39.858Z,65.60
2022-09-20T11:28:19.327Z,64.40
2022-09-20T11:31:00.264Z,63.30
2022-09-20T11:33:33.081Z,63.50
2022-09-20T11:36:02.143Z,63.80
2022-09-20T11:39:03.536Z,62.70
2022-09-20T11:41:30.722Z,63.60
2022-09-20T11:44:08.435Z,63.60
2022-09-20T11:46:50.379Z,63.60
2022-09-20T11:49:38.113Z,63.80
2022-09-20T11:52:17.400Z,64.20
2022-09-20T11:54:50.835Z,63.80
2022-09-20T11:57:17.533Z,64.50
2022-09-20T11:59:51.028Z,63.00
2022-09-20T12:02:45.195Z,63.80
2022-09-20T12:05:35.869Z,64.40
2022-09-20T12:08:08.268Z,64.30
2022-09-20T12:10:37.712Z,64.10
2022-09-20T12:13:11.652Z,63.70
2022-09-20T12:15:39.411Z,64.00
2022-09-20T12:18:15.474Z,63.70
2022-09-20T12:20:45.027Z,64.00
2022-09-20T12:23:40.396Z,64.20
2022-09-20T12:26:20.300Z,64.40
2022-09-20T12:28:58.806Z,64.60
2022-09-20T12:31:26.292Z,64.00
2022-09-20T12:34:24.735Z,64.60
2022-09-20T12:36:54.311Z,64.60
2022-09-20T12:39:37.089Z,65.10
2022-09-20T12:42:05.693Z,65.60
2022-09-20T12:44:40.139Z,65.20
2022-09-20T12:47:10.562Z,65.10
2022-09-20T12:50:01.762Z,64.80
2022-09-20T12:52:50.679Z,64.90
2022-09-20T12:55:41.269Z,65.10
2022-09-20T12:58:16.930Z,64.50
2022-09-20T13:00:45.093Z,64.80
2022-09-20T13:03:31.923Z,64.80
2022-09-20T13:06:08.757Z,63.90
2022-09-20T13:09:01.639Z,63.70
2022-09-20T13:11:29.214Z,63.80
2022-09-20T13:14:06.523Z,63.10
2022-09-20T13:16:36.350Z,63.10
2022-09-20T13:19:30.494Z,63.40
2022-09-20T13:22:00.224Z,63.00
2022-09-20T13:24:28.753Z,62.80
2022-09-20T13:27:00.200Z,63.10
2022-09-20T13:29:30.735Z,62.90
2022-09-20T13:32:14.580Z,62.90
2022-09-20T13:34:41.448Z,62.60
2022-09-20T13:37:26.442Z,62.20
2022-09-20T13:39:54.700Z,62.60
2022-09-20T13:42:21.485Z,62.90
2022-09-20T13:44:48.469Z,62.60
2022-09-20T13:47:29.263Z,62.30
2022-09-20T13:50:22.072Z,63.20
2022-09-20T13:52:51.565Z,63.20
2022-09-20T13:55:25.081Z,63.60
2022-09-20T13:57:53.070Z,63.80
2022-09-20T14:00:19.934Z,64.00
2022-09-20T14:02:48.430Z,64.00
2022-09-20T14:05:19.287Z,64.30
2022-09-20T14:07:46.880Z,64.60
2022-09-20T14:10:35.897Z,64.80
2022-09-20T14:13:04.864Z,65.00
2022-09-20T14:15:35.910Z,65.30
2022-09-20T14:18:04.661Z,64.70
2022-09-20T14:20:32.007Z,64.10
2022-09-20T14:22:59.326Z,63.80
2022-09-20T14:25:26.571Z,64.10
2022-09-20T14:28:18.736Z,64.00
2022-09-20T14:30:45.977Z,64.30
2022-09-20T14:33:18.787Z,64.00
2022-09-20T14:35:49.511Z,63.90
2022-09-20T14:38:16.409Z,64.20
2022-09-20T14:40:44.824Z,64.00
2022-09-20T14:43:42.244Z,64.30
2022-09-20T14:46:16.261Z,64.30
2022-09-20T14:48:43.098Z,64.50
2022-09-20T14:51:11.671Z,64.60
2022-09-20T14:53:38.452Z,64.60
2022-09-20T14:56:05.141Z,64.00
2022-09-20T14:58:32.227Z,63.80
2022-09-20T15:01:02.653Z,63.70
2022-09-20T15:03:31.057Z,63.10
2022-09-20T15:05:57.795Z,63.00
2022-09-20T15:08:24.789Z,63.60
2022-09-20T15:10:51.949Z,63.60
2022-09-20T15:13:18.943Z,63.60
2022-09-20T15:15:50.002Z,63.80
2022-09-20T15:18:21.804Z,63.90
2022-09-20T15:20:51.556Z,63.90
2022-09-20T15:23:18.388Z,64.50
2022-09-20T15:25:45.335Z,64.80
2022-09-20T15:28:17.263Z,64.80
2022-09-20T15:30:48.037Z,65.10
2022-09-20T15:33:14.767Z,65.30
2022-09-20T15:35:41.869Z,65.50
2022-09-20T15:38:11.180Z,65.60
2022-09-20T15:40:41.784Z,65.70
2022-09-20T15:43:11.724Z,65.90
2022-09-20T15:45:49.402Z,66.00
2022-09-20T15:48:22.362Z,66.10
2022-09-20T15:51:04.148Z,66.20
2022-09-20T15:53:31.948Z,66.50
2022-09-20T15:56:01.305Z,67.50
2022-09-20T15:58:33.514Z,67.40
2022-09-20T16:01:06.956Z,66.60
2022-09-20T16:03:36.960Z,66.50
2022-09-20T16:06:07.361Z,66.60
2022-09-20T16:08:38.660Z,66.60
2022-09-20T16:11:06.281Z,66.60
2022-09-20T16:13:33.100Z,66.70
2022-09-20T16:16:01.001Z,66.80
2022-09-20T16:18:46.768Z,66.90
2022-09-20T16:21:16.076Z,66.80
2022-09-20T16:23:46.806Z,66.90
2022-09-20T16:26:13.596Z,67.00
2022-09-20T16:28:45.159Z,67.10
2022-09-20T16:31:51.022Z,67.20
2022-09-20T16:34:22.558Z,67.40
2022-09-20T16:36:50.921Z,67.60
2022-09-20T16:39:18.288Z,67.20
2022-09-20T16:41:48.533Z,67.40
2022-09-20T16:44:15.629Z,67.30
2022-09-20T16:46:42.356Z,67.40
2022-09-20T16:49:11.551Z,67.60
2022-09-20T16:51:41.656Z,67.40
2022-09-20T16:54:12.761Z,67.70
2022-09-20T16:56:44.609Z,67.80
2022-09-20T16:59:11.686Z,67.80
2022-09-20T17:01:39.300Z,67.90
2022-09-20T17:04:06.656Z,67.80
2022-09-20T17:06:34.480Z,67.70
2022-09-20T17:09:01.396Z,67.70
2022-09-20T17:11:29.643Z,67.70
2022-09-20T17:13:57.127Z,67.70
2022-09-20T17:16:31.547Z,67.70
2022-09-20T17:19:18.576Z,67.70
2022-09-20T17:21:49.316Z,67.60
2022-09-20T17:24:17.384Z,67.90
2022-09-20T17:26:45.355Z,67.70
2022-09-20T17:29:16.285Z,67.70
2022-09-20T17:31:48.724Z,67.80
2022-09-20T17:34:18.814Z,67.70
2022-09-20T17:36:46.036Z,68.00
2022-09-20T17:39:13.523Z,68.00
2022-09-20T17:41:45.271Z,68.00
2022-09-20T17:44:12.350Z,67.70
2022-09-20T17:46:40.280Z,67.70
2022-09-20T17:49:08.714Z,67.60
2022-09-20T17:51:43.628Z,67.40
2022-09-20T17:54:13.773Z,67.50
2022-09-20T17:56:50.918Z,67.50
2022-09-20T17:59:18.220Z,67.50
2022-09-20T18:01:46.335Z,67.50
2022-09-20T18:04:13.124Z,67.60
2022-09-20T18:06:43.804Z,67.50
2022-09-20T18:09:11.989Z,67.40
2022-09-20T18:11:45.313Z,67.30
2022-09-20T18:14:13.321Z,67.40
2022-09-20T18:16:40.407Z,67.40
2022-09-20T18:19:07.759Z,67.50
2022-09-20T18:21:36.031Z,67.50
2022-09-20T18:24:06.117Z,67.50
2022-09-20T18:26:35.379Z,67.40
2022-09-20T18:29:16.707Z,67.40
2022-09-20T18:31:50.887Z,67.40
2022-09-20T18:34:20.751Z,67.70
2022-09-20T18:36:52.586Z,67.80
2022-09-20T18:39:26.308Z,67.80
2022-09-20T18:41:53.341Z,67.60
2022-09-20T18:44:20.607Z,68.00
2022-09-20T18:46:47.420Z,68.00
2022-09-20T18:49:15.129Z,67.90
2022-09-20T18:51:42.591Z,66.90
2022-09-20T18:54:10.559Z,68.30
2022-09-20T18:56:38.682Z,68.70
2022-09-20T18:59:13.643Z,69.50
2022-09-20T19:01:55.722Z,69.60
2022-09-20T19:04:40.395Z,70.30
2022-09-20T19:07:19.220Z,70.40
2022-09-20T19:10:22.394Z,70.10
2022-09-20T19:13:15.824Z,70.70
2022-09-20T19:15:51.474Z,71.20
2022-09-20T19:18:30.092Z,70.40
2022-09-20T19:21:11.837Z,70.40
2022-09-20T19:24:03.425Z,70.90
2022-09-20T19:26:31.636Z,71.20
2022-09-20T19:29:00.020Z,70.80
2022-09-20T19:31:27.718Z,71.20
2022-09-20T19:33:55.474Z,71.80
2022-09-20T19:36:26.499Z,72.00
2022-09-20T19:39:16.323Z,72.10
2022-09-20T19:41:45.158Z,72.20
2022-09-20T19:44:58.916Z,72.20
2022-09-20T19:48:02.438Z,72.50
2022-09-20T19:50:33.540Z,72.60
2022-09-20T19:53:04.116Z,72.70
2022-09-20T19:55:32.306Z,72.50
2022-09-20T19:57:59.446Z,72.60
2022-09-20T20:00:26.320Z,72.60
2022-09-20T20:02:54.027Z,72.90
2022-09-20T20:05:25.488Z,73.10
2022-09-20T20:08:10.753Z,73.20
2022-09-20T20:10:49.753Z,73.40
2022-09-20T20:13:40.487Z,73.40
2022-09-20T20:16:11.485Z,73.50
2022-09-20T20:19:06.718Z,73.70
2022-09-20T20:21:52.954Z,73.60
2022-09-20T20:24:30.920Z,73.50
2022-09-20T20:26:57.667Z,73.20
2022-09-20T20:29:24.452Z,73.40
2022-09-20T20:31:51.147Z,73.70
2022-09-20T20:34:17.947Z,73.80
2022-09-20T20:36:44.661Z,73.90
2022-09-20T20:39:11.824Z,74.00
2022-09-20T20:41:39.414Z,74.10
2022-09-20T20:44:06.336Z,74.20
2022-09-20T20:46:34.192Z,74.30
2022-09-20T20:49:01.615Z,74.20
2022-09-20T20:51:28.444Z,74.20
2022-09-20T20:53:55.391Z,74.20
2022-09-20T20:56:27.534Z,74.40
2022-09-20T20:58:54.569Z,74.40
2022-09-20T21:01:45.996Z,74.60
2022-09-20T21:04:13.167Z,74.50
2022-09-20T21:06:43.156Z,74.70
2022-09-20T21:09:10.360Z,74.50
2022-09-20T21:11:38.628Z,74.50
2022-09-20T21:14:06.630Z,74.30
2022-09-20T21:16:35.722Z,74.50
2022-09-20T21:19:02.688Z,74.50
2022-09-20T21:21:35.017Z,74.60
2022-09-20T21:24:06.691Z,74.60
2022-09-20T21:26:34.324Z,74.90
2022-09-20T21:29:02.284Z,74.90
2022-09-20T21:31:30.599Z,75.00
2022-09-20T21:33:57.341Z,75.00
2022-09-20T21:36:25.861Z,75.10
2022-09-20T21:38:52.595Z,75.30
2022-09-20T21:41:23.976Z,75.40
2022-09-20T21:43:55.490Z,75.30
2022-09-20T21:46:24.258Z,75.30
2022-09-20T21:48:51.381Z,75.40
2022-09-20T21:51:19.277Z,75.50
2022-09-20T21:53:47.366Z,75.70
2022-09-20T21:56:16.213Z,75.60
2022-09-20T21:58:43.267Z,76.50
2022-09-20T22:01:11.789Z,75.60
2022-09-20T22:03:45.647Z,75.60
2022-09-20T22:06:13.208Z,75.80
2022-09-20T22:08:42.322Z,75.80
2022-09-20T22:11:13.510Z,75.70
2022-09-20T22:13:42.956Z,75.90
2022-09-20T22:16:11.982Z,75.90
2022-09-20T22:18:39.678Z,76.00
2022-09-20T22:21:11.181Z,75.90
2022-09-20T22:23:38.044Z,75.90
2022-09-20T22:26:10.501Z,75.90
2022-09-20T22:28:37.348Z,75.90
2022-09-20T22:31:14.968Z,75.90
2022-09-20T22:33:46.264Z,76.10
2022-09-20T22:36:15.501Z,76.20
2022-09-20T22:38:42.959Z,75.90
2022-09-20T22:41:10.022Z,75.80
2022-09-20T22:43:37.359Z,75.80
2022-09-20T22:46:11.793Z,75.70
2022-09-20T22:48:39.207Z,75.10
2022-09-20T22:51:07.663Z,74.50
2022-09-20T22:53:34.560Z,74.50
2022-09-20T22:56:08.378Z,74.70
2022-09-20T22:58:39.457Z,74.50
2022-09-20T23:01:27.373Z,74.80
2022-09-20T23:03:56.249Z,74.50
2022-09-20T23:06:31.044Z,74.30
2022-09-20T23:08:59.674Z,74.60
2022-09-20T23:11:27.069Z,74.70
2022-09-20T23:13:55.138Z,74.70
2022-09-20T23:16:26.273Z,74.30
2022-09-20T23:18:53.523Z,74.40
2022-09-20T23:21:20.382Z,74.40
2022-09-20T23:23:47.780Z,74.10
2022-09-20T23:26:16.121Z,74.00
2022-09-20T23:28:44.078Z,73.80
2022-09-20T23:31:13.850Z,74.00
2022-09-20T23:33:43.625Z,74.00
2022-09-20T23:36:13.290Z,73.60
2022-09-20T23:38:39.963Z,73.80
2022-09-20T23:41:07.752Z,73.60
2022-09-20T23:43:35.200Z,73.70
2022-09-20T23:46:02.361Z,73.90
2022-09-20T23:48:29.150Z,74.00
2022-09-20T23:50:56.045Z,74.10
2022-09-20T23:53:23.062Z,74.30
2022-09-20T23:55:50.056Z,74.30
2022-09-20T23:58:16.999Z,74.30
